createdAt,value
2023-04-11T00:01:32.403Z,6.49
2023-04-11T00:04:01.025Z,6.48
2023-04-11T00:06:29.672Z,6.49
2023-04-11T00:08:57.940Z,6.50
2023-04-11T00:11:26.223Z,6.52
2023-04-11T00:13:57.791Z,6.53
2023-04-11T00:16:27.250Z,6.55
2023-04-11T00:18:57.721Z,6.55
2023-04-11T00:21:26.308Z,6.55
2023-04-11T00:23:54.336Z,6.53
2023-04-11T00:26:22.308Z,6.50
2023-04-11T00:28:50.346Z,6.47
2023-04-11T00:31:18.363Z,6.45
2023-04-11T00:33:46.305Z,6.41
2023-04-11T00:36:14.528Z,6.37
2023-04-11T00:38:42.555Z,6.33
2023-04-11T00:41:11.026Z,6.30
2023-04-11T00:43:39.033Z,6.27
2023-04-11T00:46:09.537Z,6.24
2023-04-11T00:48:37.866Z,6.20
2023-04-11T00:51:06.025Z,6.19
2023-04-11T00:53:37.287Z,6.12
2023-04-11T00:56:05.619Z,6.09
2023-04-11T00:58:34.689Z,6.12
2023-04-11T01:01:09.394Z,6.12
2023-04-11T01:03:41.452Z,6.11
2023-04-11T01:06:12.130Z,6.08
2023-04-11T01:08:43.364Z,6.08
2023-04-11T01:11:12.903Z,6.06
2023-04-11T01:13:42.609Z,6.03
2023-04-11T01:16:12.064Z,5.99
2023-04-11T01:18:40.064Z,5.95
2023-04-11T01:21:09.908Z,5.90
2023-04-11T01:23:38.260Z,5.87
2023-04-11T01:26:06.618Z,5.87
2023-04-11T01:28:34.678Z,5.88
2023-04-11T01:31:04.249Z,5.84
2023-04-11T01:33:32.896Z,5.76
2023-04-11T01:36:01.440Z,5.71
2023-04-11T01:38:29.718Z,5.73
2023-04-11T01:40:59.082Z,5.73
2023-04-11T01:43:27.642Z,5.70
2023-04-11T01:45:55.945Z,5.66
2023-04-11T01:48:24.015Z,5.61
2023-04-11T01:50:53.527Z,5.55
2023-04-11T01:53:21.461Z,5.49
2023-04-11T01:55:49.380Z,5.43
2023-04-11T01:58:17.456Z,5.40
2023-04-11T02:00:45.465Z,5.38
2023-04-11T02:03:13.627Z,5.37
2023-04-11T02:05:43.089Z,5.36
2023-04-11T02:08:11.558Z,5.36
2023-04-11T02:10:39.487Z,5.36
2023-04-11T02:13:07.374Z,5.36
2023-04-11T02:15:35.374Z,5.37
2023-04-11T02:18:03.559Z,5.35
2023-04-11T02:20:31.937Z,5.32
2023-04-11T02:23:03.639Z,5.27
2023-04-11T02:25:31.579Z,5.22
2023-04-11T02:28:00.971Z,5.16
2023-04-11T02:30:29.092Z,5.10
2023-04-11T02:32:57.050Z,5.04
2023-04-11T02:35:24.983Z,4.99
2023-04-11T02:37:52.889Z,4.94
2023-04-11T02:40:20.761Z,4.89
2023-04-11T02:42:48.675Z,4.84
2023-04-11T02:45:18.399Z,4.78
2023-04-11T02:47:46.372Z,4.73
2023-04-11T02:50:14.316Z,4.70
2023-04-11T02:52:49.403Z,4.66
2023-04-11T02:55:19.381Z,4.64
2023-04-11T02:57:47.468Z,4.62
2023-04-11T03:00:20.441Z,4.61
2023-04-11T03:02:52.104Z,4.61
2023-04-11T03:05:22.929Z,4.61
2023-04-11T03:07:53.135Z,4.60
2023-04-11T03:10:21.126Z,4.59
2023-04-11T03:12:49.092Z,4.54
2023-04-11T03:15:17.858Z,4.48
2023-04-11T03:17:45.903Z,4.42
2023-04-11T03:20:19.803Z,4.34
2023-04-11T03:22:51.244Z,4.24
2023-04-11T03:25:20.198Z,4.14
2023-04-11T03:27:49.477Z,4.06
2023-04-11T03:30:17.610Z,4.02
2023-04-11T03:32:47.918Z,3.99
2023-04-11T03:35:17.534Z,3.98
2023-04-11T03:37:47.872Z,3.97
2023-04-11T03:40:18.786Z,3.96
2023-04-11T03:42:51.237Z,3.93
2023-04-11T03:45:22.689Z,3.93
2023-04-11T03:47:51.716Z,3.92
2023-04-11T03:50:21.972Z,3.92
2023-04-11T03:52:51.838Z,3.92
2023-04-11T03:55:20.778Z,3.91
2023-04-11T03:57:48.957Z,3.90
2023-04-11T04:00:20.957Z,3.88
2023-04-11T04:02:57.172Z,3.85
2023-04-11T04:05:26.181Z,3.81
2023-04-11T04:07:55.925Z,3.78
2023-04-11T04:10:35.776Z,3.75
2023-04-11T04:13:03.824Z,3.72
2023-04-11T04:15:42.595Z,3.69
2023-04-11T04:18:11.727Z,3.67
2023-04-11T04:20:49.490Z,3.65
2023-04-11T04:23:18.417Z,3.64
2023-04-11T04:26:25.134Z,3.67
2023-04-11T04:29:05.880Z,3.70
2023-04-11T04:31:50.776Z,3.75
2023-04-11T04:34:22.054Z,3.83
2023-04-11T04:36:50.452Z,3.95
2023-04-11T04:39:25.842Z,4.06
2023-04-11T04:42:00.689Z,4.17
2023-04-11T04:44:34.163Z,4.26
2023-04-11T04:47:05.544Z,4.33
2023-04-11T04:49:33.468Z,4.39
2023-04-11T04:52:02.584Z,4.39
2023-04-11T04:54:32.333Z,4.42
2023-04-11T04:57:01.827Z,4.42
2023-04-11T04:59:29.845Z,4.48
2023-04-11T05:02:03.665Z,4.53
2023-04-11T05:04:34.553Z,4.58
2023-04-11T05:07:03.785Z,4.63
2023-04-11T05:09:32.585Z,4.67
2023-04-11T05:12:10.947Z,4.74
2023-04-11T05:14:40.042Z,4.81
2023-04-11T05:17:08.176Z,4.94
2023-04-11T05:19:36.313Z,5.28
2023-04-11T05:22:04.591Z,6.01
2023-04-11T05:24:34.150Z,6.63
2023-04-11T05:27:02.959Z,6.92
2023-04-11T05:29:31.850Z,7.17
2023-04-11T05:32:01.112Z,7.46
2023-04-11T05:34:32.878Z,7.78
2023-04-11T05:37:01.498Z,8.21
2023-04-11T05:39:29.757Z,8.71
2023-04-11T05:41:58.139Z,9.33
2023-04-11T05:44:26.166Z,10.17
2023-04-11T05:46:54.059Z,10.92
2023-04-11T05:49:22.319Z,11.50
2023-04-11T05:51:50.323Z,11.92
2023-04-11T05:54:37.779Z,12.39
2023-04-11T05:57:07.997Z,12.79
2023-04-11T05:59:36.258Z,12.94
2023-04-11T06:02:04.596Z,13.22
2023-04-11T06:04:32.856Z,13.63
2023-04-11T06:07:04.005Z,14.00
2023-04-11T06:09:33.960Z,14.26
2023-04-11T06:12:03.666Z,14.43
2023-04-11T06:14:33.544Z,14.68
2023-04-11T06:17:01.552Z,14.77
2023-04-11T06:19:29.612Z,14.84
2023-04-11T06:21:57.707Z,14.75
2023-04-11T06:24:40.633Z,15.11
2023-04-11T06:27:12.173Z,15.47
2023-04-11T06:29:44.026Z,15.84
2023-04-11T06:32:13.283Z,16.12
2023-04-11T06:34:41.987Z,16.25
2023-04-11T06:37:11.347Z,16.40
2023-04-11T06:39:39.791Z,16.49
2023-04-11T06:42:08.190Z,16.67
2023-04-11T06:44:36.738Z,16.88
2023-04-11T06:47:05.026Z,16.71
2023-04-11T06:49:34.113Z,16.75
2023-04-11T06:52:04.729Z,16.74
2023-04-11T06:54:32.920Z,16.85
2023-04-11T06:57:03.585Z,17.14
2023-04-11T06:59:32.813Z,17.37
2023-04-11T07:02:01.156Z,17.57
2023-04-11T07:04:29.575Z,17.78
2023-04-11T07:06:57.918Z,17.90
2023-04-11T07:09:26.075Z,17.94
2023-04-11T07:11:54.282Z,17.68
2023-04-11T07:14:22.406Z,17.06
2023-04-11T07:16:50.724Z,16.89
2023-04-11T07:19:19.089Z,16.73
2023-04-11T07:21:48.997Z,16.86
2023-04-11T07:24:18.749Z,17.13
2023-04-11T07:26:47.086Z,17.28
2023-04-11T07:29:15.187Z,17.41
2023-04-11T07:31:45.430Z,17.43
2023-04-11T07:34:13.554Z,17.71
2023-04-11T07:36:42.348Z,18.06
2023-04-11T07:39:14.217Z,17.88
2023-04-11T07:41:42.563Z,17.72
2023-04-11T07:44:10.942Z,17.41
2023-04-11T07:46:39.035Z,17.21
2023-04-11T07:49:07.366Z,17.23
2023-04-11T07:51:35.424Z,17.49
2023-04-11T07:54:03.935Z,17.75
2023-04-11T07:56:32.067Z,17.67
2023-04-11T07:59:01.418Z,17.39
2023-04-11T08:01:29.861Z,17.47
2023-04-11T08:03:58.671Z,17.55
2023-04-11T08:06:30.247Z,17.22
2023-04-11T08:08:59.030Z,17.00
2023-04-11T08:11:27.163Z,16.96
2023-04-11T08:13:55.706Z,17.01
2023-04-11T08:16:24.728Z,16.75
2023-04-11T08:18:52.987Z,16.43
2023-04-11T08:21:23.787Z,16.42
2023-04-11T08:23:52.233Z,16.56
2023-04-11T08:26:21.246Z,16.75
2023-04-11T08:28:49.688Z,16.61
2023-04-11T08:31:18.291Z,16.36
2023-04-11T08:33:46.496Z,16.51
2023-04-11T08:36:14.689Z,16.75
2023-04-11T08:38:42.822Z,16.85
2023-04-11T08:41:11.568Z,16.86
2023-04-11T08:43:44.048Z,16.28
2023-04-11T08:46:13.252Z,15.53
2023-04-11T08:48:41.271Z,14.66
2023-04-11T08:51:09.391Z,14.45
2023-04-11T08:53:39.221Z,14.26
2023-04-11T08:56:17.610Z,14.29
2023-04-11T08:58:47.353Z,14.40
2023-04-11T09:01:27.454Z,14.43
2023-04-11T09:03:56.367Z,14.30
2023-04-11T09:06:24.998Z,14.22
2023-04-11T09:08:53.215Z,14.28
2023-04-11T09:11:21.780Z,14.22
2023-04-11T09:14:15.215Z,14.13
2023-04-11T09:17:05.007Z,14.09
2023-04-11T09:19:35.189Z,14.15
2023-04-11T09:22:07.362Z,14.27
2023-04-11T09:24:37.318Z,14.23
2023-04-11T09:27:17.004Z,13.91
2023-04-11T09:29:47.604Z,13.56
2023-04-11T09:32:31.952Z,13.78
2023-04-11T09:35:21.033Z,14.25
2023-04-11T09:37:52.803Z,14.49
2023-04-11T09:40:31.931Z,14.39
2023-04-11T09:43:02.961Z,14.42
2023-04-11T09:45:38.277Z,14.39
2023-04-11T09:48:09.574Z,14.40
2023-04-11T09:50:38.747Z,14.53
2023-04-11T09:53:07.083Z,14.66
2023-04-11T09:55:38.144Z,14.77
2023-04-11T09:58:10.596Z,14.87
2023-04-11T10:00:41.373Z,14.93
2023-04-11T10:03:09.564Z,15.03
2023-04-11T10:05:39.161Z,15.09
2023-04-11T10:08:26.336Z,14.98
2023-04-11T10:10:54.605Z,14.91
2023-04-11T10:13:43.662Z,15.01
2023-04-11T10:16:18.954Z,15.17
2023-04-11T10:18:53.301Z,15.33
2023-04-11T10:21:28.040Z,15.58
2023-04-11T10:24:17.528Z,15.91
2023-04-11T10:26:50.522Z,15.95
2023-04-11T10:29:34.759Z,16.07
2023-04-11T10:32:24.982Z,16.13
2023-04-11T10:34:53.586Z,15.93
2023-04-11T10:37:33.615Z,15.81
2023-04-11T10:40:10.443Z,16.00
2023-04-11T10:42:43.771Z,16.34
2023-04-11T10:45:30.514Z,16.31
2023-04-11T10:47:58.856Z,15.90
2023-04-11T10:50:31.911Z,15.58
2023-04-11T10:53:06.694Z,15.14
2023-04-11T10:55:46.270Z,14.95
2023-04-11T10:58:22.462Z,15.01
2023-04-11T11:00:54.358Z,15.16
2023-04-11T11:03:32.235Z,15.23
2023-04-11T11:06:03.074Z,15.16
2023-04-11T11:08:38.245Z,15.08
2023-04-11T11:11:09.720Z,15.18
2023-04-11T11:13:53.140Z,15.25
2023-04-11T11:16:24.340Z,15.31
2023-04-11T11:18:54.983Z,15.49
2023-04-11T11:21:28.573Z,15.73
2023-04-11T11:24:03.766Z,15.90
2023-04-11T11:26:44.021Z,15.86
2023-04-11T11:29:13.465Z,15.76
2023-04-11T11:31:45.999Z,15.65
2023-04-11T11:34:26.330Z,15.62
2023-04-11T11:36:56.610Z,15.75
2023-04-11T11:39:26.018Z,15.81
2023-04-11T11:41:54.586Z,15.83
2023-04-11T11:44:30.365Z,15.94
2023-04-11T11:47:06.859Z,15.92
2023-04-11T11:49:51.464Z,16.01
2023-04-11T11:52:43.839Z,16.23
2023-04-11T11:55:18.898Z,16.39
2023-04-11T11:57:49.118Z,16.56
2023-04-11T12:00:26.178Z,16.62
2023-04-11T12:02:56.681Z,16.69
2023-04-11T12:05:30.463Z,16.79
2023-04-11T12:08:09.138Z,16.88
2023-04-11T12:10:46.845Z,16.78
2023-04-11T12:13:27.278Z,16.49
2023-04-11T12:15:57.873Z,16.13
2023-04-11T12:18:28.643Z,15.78
2023-04-11T12:20:58.640Z,15.79
2023-04-11T12:23:26.838Z,15.64
2023-04-11T12:25:55.393Z,15.49
2023-04-11T12:28:23.785Z,15.29
2023-04-11T12:30:52.134Z,15.40
2023-04-11T12:33:22.366Z,15.42
2023-04-11T12:35:51.416Z,15.32
2023-04-11T12:38:19.943Z,15.35
2023-04-11T12:40:50.999Z,15.43
2023-04-11T12:43:22.580Z,15.34
2023-04-11T12:45:51.543Z,15.33
2023-04-11T12:48:19.821Z,15.31
2023-04-11T12:50:48.072Z,15.31
2023-04-11T12:53:16.429Z,15.35
2023-04-11T12:55:45.882Z,15.40
2023-04-11T12:58:14.297Z,15.40
2023-04-11T13:00:42.843Z,15.51
2023-04-11T13:03:11.958Z,15.77
2023-04-11T13:05:40.688Z,15.97
2023-04-11T13:08:09.082Z,15.98
2023-04-11T13:10:37.354Z,16.05
2023-04-11T13:13:17.450Z,16.29
2023-04-11T13:15:47.438Z,16.50
2023-04-11T13:18:15.944Z,16.62
2023-04-11T13:20:44.189Z,16.71
2023-04-11T13:23:13.689Z,16.69
2023-04-11T13:25:43.443Z,16.78
2023-04-11T13:28:11.708Z,16.79
2023-04-11T13:30:41.290Z,16.68
2023-04-11T13:33:09.880Z,16.50
2023-04-11T13:35:39.212Z,16.29
2023-04-11T13:38:08.250Z,16.13
2023-04-11T13:40:39.080Z,16.00
2023-04-11T13:43:07.426Z,15.77
2023-04-11T13:45:36.157Z,15.54
2023-04-11T13:48:04.705Z,15.48
2023-04-11T13:50:34.636Z,15.39
2023-04-11T13:53:03.104Z,15.33
2023-04-11T13:55:31.763Z,15.28
2023-04-11T13:58:00.379Z,15.27
2023-04-11T14:00:28.889Z,15.24
2023-04-11T14:02:57.934Z,15.23
2023-04-11T14:05:27.212Z,15.19
2023-04-11T14:07:55.770Z,15.19
2023-04-11T14:10:24.117Z,15.16
2023-04-11T14:12:52.539Z,15.13
2023-04-11T14:15:21.910Z,15.10
2023-04-11T14:17:50.486Z,14.97
2023-04-11T14:20:19.180Z,14.93
2023-04-11T14:22:47.581Z,14.95
2023-04-11T14:25:16.022Z,15.11
2023-04-11T14:27:45.198Z,15.29
2023-04-11T14:30:13.676Z,15.42
2023-04-11T14:32:42.111Z,15.45
2023-04-11T14:35:10.536Z,15.48
2023-04-11T14:37:38.845Z,15.57
2023-04-11T14:40:11.360Z,15.58
2023-04-11T14:42:40.475Z,15.72
2023-04-11T14:45:09.519Z,15.85
2023-04-11T14:47:38.169Z,15.86
2023-04-11T14:50:07.943Z,15.79
2023-04-11T14:52:36.343Z,15.64
2023-04-11T14:55:05.357Z,15.63
2023-04-11T14:57:53.590Z,15.56
2023-04-11T15:00:24.939Z,15.56
2023-04-11T15:02:55.896Z,15.49
2023-04-11T15:05:25.933Z,15.32
2023-04-11T15:07:54.670Z,15.16
2023-04-11T15:10:26.992Z,15.15
2023-04-11T15:12:55.575Z,15.06
2023-04-11T15:15:24.301Z,14.93
2023-04-11T15:18:19.304Z,14.75
2023-04-11T15:20:47.634Z,14.67
2023-04-11T15:23:16.541Z,14.63
2023-04-11T15:25:45.618Z,14.56
2023-04-11T15:28:14.035Z,14.50
2023-04-11T15:30:47.987Z,14.40
2023-04-11T15:33:17.060Z,14.31
2023-04-11T15:35:46.233Z,14.21
2023-04-11T15:38:15.485Z,14.19
2023-04-11T15:40:44.072Z,14.16
2023-04-11T15:43:12.737Z,14.17
2023-04-11T15:45:44.449Z,14.09
2023-04-11T15:48:13.511Z,14.05
2023-04-11T15:50:43.318Z,14.01
2023-04-11T15:53:12.558Z,13.94
2023-04-11T15:55:42.955Z,13.92
2023-04-11T15:58:11.436Z,13.89
2023-04-11T16:00:42.366Z,13.82
2023-04-11T16:03:11.409Z,13.75
2023-04-11T16:05:43.387Z,13.65
2023-04-11T16:08:12.282Z,13.62
2023-04-11T16:10:40.627Z,13.61
2023-04-11T16:13:09.475Z,13.61
2023-04-11T16:15:38.258Z,13.59
2023-04-11T16:18:07.219Z,13.55
2023-04-11T16:20:36.054Z,13.52
2023-04-11T16:23:04.436Z,13.50
2023-04-11T16:25:32.749Z,13.51
2023-04-11T16:28:00.802Z,13.49
2023-04-11T16:30:28.927Z,13.46
2023-04-11T16:32:59.501Z,13.44
2023-04-11T16:35:28.272Z,13.34
2023-04-11T16:37:56.576Z,13.23
2023-04-11T16:40:25.419Z,13.13
2023-04-11T16:42:53.714Z,13.05
2023-04-11T16:45:22.297Z,12.95
2023-04-11T16:47:50.874Z,12.87
2023-04-11T16:50:19.773Z,12.71
2023-04-11T16:52:48.296Z,12.64
2023-04-11T16:55:16.990Z,12.55
2023-04-11T16:57:45.209Z,12.46
2023-04-11T17:00:17.432Z,12.37
2023-04-11T17:02:47.238Z,12.30
2023-04-11T17:05:19.203Z,12.26
2023-04-11T17:07:48.172Z,12.13
2023-04-11T17:10:17.055Z,12.10
2023-04-11T17:12:45.312Z,12.06
2023-04-11T17:15:13.379Z,11.98
2023-04-11T17:17:42.131Z,11.94
2023-04-11T17:20:11.963Z,11.86
2023-04-11T17:22:43.719Z,11.79
2023-04-11T17:25:12.332Z,11.77
2023-04-11T17:27:41.812Z,11.73
2023-04-11T17:30:12.330Z,11.69
2023-04-11T17:32:41.213Z,11.64
2023-04-11T17:35:11.657Z,11.54
2023-04-11T17:37:40.232Z,11.55
2023-04-11T17:40:12.925Z,11.55
2023-04-11T17:42:42.114Z,11.53
2023-04-11T17:47:46.617Z,11.46
2023-04-11T17:50:15.560Z,11.44
2023-04-11T17:52:45.323Z,11.41
2023-04-11T17:55:16.012Z,11.37
2023-04-11T17:57:51.466Z,11.38
2023-04-11T18:00:26.110Z,11.32
2023-04-11T18:02:58.122Z,11.29
2023-04-11T18:05:29.460Z,11.26
2023-04-11T18:08:00.336Z,11.24
2023-04-11T18:10:31.031Z,11.23
2023-04-11T18:12:59.760Z,11.24
2023-04-11T18:15:28.280Z,11.21
2023-04-11T18:17:56.916Z,11.14
2023-04-11T18:20:25.204Z,11.09
2023-04-11T18:22:54.958Z,11.08
2023-04-11T18:25:23.527Z,11.09
2023-04-11T18:27:52.253Z,11.10
2023-04-11T18:30:21.026Z,11.09
2023-04-11T18:32:51.911Z,11.07
2023-04-11T18:35:21.334Z,11.06
2023-04-11T18:37:49.814Z,11.05
2023-04-11T18:40:18.580Z,11.02
2023-04-11T18:42:50.452Z,10.99
2023-04-11T18:45:21.983Z,10.99
2023-04-11T18:47:51.116Z,11.00
2023-04-11T18:50:19.945Z,11.00
2023-04-11T18:52:53.487Z,10.94
2023-04-11T18:55:23.363Z,10.91
2023-04-11T18:57:55.533Z,10.92
2023-04-11T19:00:30.476Z,10.90
2023-04-11T19:02:59.689Z,10.90
2023-04-11T19:05:29.524Z,10.90
2023-04-11T19:07:59.961Z,10.86
2023-04-11T19:10:28.651Z,10.83
2023-04-11T19:12:56.977Z,10.78
2023-04-11T19:15:25.742Z,10.70
2023-04-11T19:17:54.265Z,10.67
2023-04-11T19:20:26.730Z,10.62
2023-04-11T19:22:55.009Z,10.59
2023-04-11T19:25:24.608Z,10.56
2023-04-11T19:27:53.207Z,10.53
2023-04-11T19:30:22.159Z,10.48
2023-04-11T19:32:50.859Z,10.43
2023-04-11T19:35:24.271Z,10.40
2023-04-11T19:37:53.679Z,10.36
2023-04-11T19:40:24.806Z,10.30
2023-04-11T19:42:53.693Z,10.26
2023-04-11T19:45:22.335Z,10.21
2023-04-11T19:47:50.958Z,10.17
2023-04-11T19:50:19.381Z,10.12
2023-04-11T19:52:47.494Z,10.07
2023-04-11T19:55:16.300Z,10.02
2023-04-11T19:57:44.548Z,9.93
2023-04-11T20:00:14.295Z,9.87
2023-04-11T20:02:50.522Z,9.80
2023-04-11T20:05:20.008Z,9.71
2023-04-11T20:07:49.036Z,9.63
2023-04-11T20:10:17.726Z,9.54
2023-04-11T20:12:46.353Z,9.49
2023-04-11T20:15:15.198Z,9.41
2023-04-11T20:17:45.919Z,9.35
2023-04-11T20:20:15.915Z,9.29
2023-04-11T20:22:45.048Z,9.25
2023-04-11T20:25:13.635Z,9.25
2023-04-11T20:27:42.903Z,9.26
2023-04-11T20:30:12.327Z,9.30
2023-04-11T20:32:41.477Z,9.33
2023-04-11T20:35:12.453Z,9.35
2023-04-11T20:37:43.909Z,9.38
2023-04-11T20:40:14.413Z,9.40
2023-04-11T20:42:46.057Z,9.43
2023-04-11T20:45:21.923Z,9.42
2023-04-11T20:47:50.586Z,9.41
2023-04-11T20:50:20.125Z,9.41
2023-04-11T20:52:52.866Z,9.38
2023-04-11T20:55:21.259Z,9.34
2023-04-11T20:57:49.865Z,9.32
2023-04-11T21:00:20.094Z,9.29
2023-04-11T21:02:50.798Z,9.28
2023-04-11T21:05:25.312Z,9.27
2023-04-11T21:07:58.969Z,9.26
2023-04-11T21:10:27.585Z,9.24
2023-04-11T21:12:55.962Z,9.22
2023-04-11T21:15:24.329Z,9.17
2023-04-11T21:17:52.591Z,9.11
2023-04-11T21:20:22.525Z,9.04
2023-04-11T21:22:55.417Z,8.96
2023-04-11T21:25:24.347Z,8.87
2023-04-11T21:27:52.752Z,8.78
2023-04-11T21:30:21.109Z,8.71
2023-04-11T21:32:49.449Z,8.63
2023-04-11T21:35:17.729Z,8.56
2023-04-11T21:37:48.490Z,8.50
2023-04-11T21:40:17.601Z,8.44
2023-04-11T21:42:46.279Z,8.41
2023-04-11T21:45:14.544Z,8.38
2023-04-11T21:47:43.026Z,8.37
2023-04-11T21:50:11.725Z,8.35
2023-04-11T21:52:40.436Z,8.32
2023-04-11T21:55:09.298Z,8.27
2023-04-11T21:57:37.786Z,8.23
2023-04-11T22:00:08.541Z,8.19
2023-04-11T22:02:42.788Z,8.14
2023-04-11T22:05:12.870Z,8.07
2023-04-11T22:07:47.545Z,8.00
2023-04-11T22:10:22.750Z,7.94
2023-04-11T22:12:54.145Z,7.90
2023-04-11T22:15:24.484Z,7.85
2023-04-11T22:17:56.599Z,7.82
2023-04-11T22:20:24.805Z,7.79
2023-04-11T22:22:53.017Z,7.78
2023-04-11T22:25:22.748Z,7.77
2023-04-11T22:27:54.709Z,7.75
2023-04-11T22:30:24.731Z,7.73
2023-04-11T22:32:54.423Z,7.70
2023-04-11T22:35:26.279Z,7.65
2023-04-11T22:37:57.362Z,7.61
2023-04-11T22:40:25.714Z,7.57
2023-04-11T22:42:54.219Z,7.53
2023-04-11T22:45:23.513Z,7.48
2023-04-11T22:47:54.575Z,7.47
2023-04-11T22:50:23.467Z,7.42
2023-04-11T22:52:51.668Z,7.38
2023-04-11T22:55:21.391Z,7.37
2023-04-11T22:57:50.448Z,7.36
2023-04-11T23:00:19.361Z,7.34
2023-04-11T23:02:48.073Z,7.34
2023-04-11T23:05:16.910Z,7.34
2023-04-11T23:07:45.419Z,7.35
2023-04-11T23:10:17.253Z,7.35
2023-04-11T23:12:46.014Z,7.34
2023-04-11T23:15:14.628Z,7.31
2023-04-11T23:17:42.891Z,7.28
2023-04-11T23:20:13.971Z,7.23
2023-04-11T23:22:44.159Z,7.19
2023-04-11T23:25:14.368Z,7.14
2023-04-11T23:27:43.869Z,7.12
2023-04-11T23:30:15.286Z,7.08
2023-04-11T23:32:43.747Z,7.04
2023-04-11T23:35:12.013Z,7.04
2023-04-11T23:37:41.065Z,7.04
2023-04-11T23:40:11.191Z,7.05
2023-04-11T23:42:41.135Z,7.06
2023-04-11T23:45:11.042Z,7.06
2023-04-11T23:47:39.058Z,7.08
2023-04-11T23:50:08.418Z,7.10
2023-04-11T23:52:36.675Z,7.11
2023-04-11T23:55:05.243Z,7.11
2023-04-11T23:57:33.331Z,7.08
